KORL

Orlando Executive Airport

Orlando, Florida, USA
METAR KORL 131053Z AUTO 00000KT 10SM OVC065 14/10 A3019 RMK AO2 SLP229 T01440100
Observed Flight Rules
Dec-13 @ 10:53 UTC (9 minutes ago) Visual Flight Rules
Visibility Clouds
10 miles
  • Overcast at 6,500' AGL
Temperatures Readings
Current 14°C / 57°F
Dewpoint 10°C / 50°F
Humidity 77%
Altimeter 30.19" Hg
Pressure 1022.9 hPa
Elevation 37
METAR KORL 131053Z AUTO 00000KT 10SM OVC065 14/10 A3019 RMK AO2 SLP229 T01440100
Observed Flight Rules
Dec-13 @ 10:53 UTC
(9 minutes ago)
VFR
Clouds
  • Overcast at 6,500' AGL
Temperature Dewpoint
14°C / 57°F 10°C / 50°F
Humidity Altimeter Pressure
77% 30.19" Hg 1022.9 hPa